KFYV/FYV METAR and TAF weather

Enter ICAO airport designator
Station Type Date Time Source
KFYV METAR 2022/06/28 07:53 UTC NOAA

KFYV 280753Z AUTO 00000KT 10SM CLR 15/14 A3024 RMK AO2 SLP229 T01500139


Station Type Date Time Source
KFYV Decoded METAR 2022/06/28 07:53 UTC NOAA

FAYETTEVILLE DRAKE FIELD, AR, United States (KFYV) 36-00N 94-10W 379M
Jun 28, 2022 - 03:53 AM EDT / 2022.06.28 0753 UTC
Wind: Calm:0
Visibility: 10 mile(s):0
Sky conditions: clear
Temperature: 59.0 F (15.0 C)
Dew Point: 57.0 F (13.9 C)
Relative Humidity: 93%
Pressure (altimeter): 30.24 in. Hg (1024 hPa)
ob: KFYV 280753Z AUTO 00000KT 10SM CLR 15/14 A3024 RMK AO2 SLP229 T01500139
cycle: 8

Station Type Date Time Source
KFYV TAF 2022/06/28 06:22 UTC NOAA

TAF KFYV 280520Z 2806/2906 00000KT P6SM SCT150
FM280900 00000KT P6SM BKN120
FM281700 05006KT P6SM FEW250

Example: see airport list